createdAt,value
2023-02-19T00:01:01.026Z,9.33
2023-02-19T00:03:27.487Z,9.52
2023-02-19T00:05:53.934Z,9.31
2023-02-19T00:08:20.330Z,9.18
2023-02-19T00:10:46.736Z,9.25
2023-02-19T00:13:13.144Z,9.26
2023-02-19T00:15:39.619Z,9.23
2023-02-19T00:18:06.032Z,9.40
2023-02-19T00:20:32.422Z,9.49
2023-02-19T00:22:58.802Z,9.41
2023-02-19T00:25:25.215Z,9.31
2023-02-19T00:27:51.595Z,9.42
2023-02-19T00:30:18.052Z,9.34
2023-02-19T00:32:44.482Z,9.17
2023-02-19T00:35:11.078Z,9.13
2023-02-19T00:37:37.496Z,8.95
2023-02-19T00:40:03.902Z,8.88
2023-02-19T00:42:30.295Z,8.92
2023-02-19T00:44:56.690Z,9.06
2023-02-19T00:47:23.116Z,9.21
2023-02-19T00:49:49.531Z,9.17
2023-02-19T00:52:16.028Z,9.28
2023-02-19T00:54:42.428Z,9.21
2023-02-19T00:57:08.809Z,9.10
2023-02-19T00:59:35.210Z,9.06
2023-02-19T01:02:01.597Z,9.11
2023-02-19T01:04:28.038Z,9.34
2023-02-19T01:06:54.786Z,9.26
2023-02-19T01:09:21.184Z,9.07
2023-02-19T01:11:47.574Z,8.96
2023-02-19T01:14:14.016Z,8.90
2023-02-19T01:16:40.407Z,8.99
2023-02-19T01:19:06.834Z,8.94
2023-02-19T01:21:33.244Z,8.94
2023-02-19T01:23:59.636Z,8.93
2023-02-19T01:26:26.108Z,8.91
2023-02-19T01:28:52.494Z,8.93
2023-02-19T01:31:18.957Z,8.86
2023-02-19T01:33:45.441Z,8.88
2023-02-19T01:36:11.861Z,8.83
2023-02-19T01:38:38.247Z,8.82
2023-02-19T01:41:04.649Z,8.89
2023-02-19T01:43:31.331Z,9.05
2023-02-19T01:45:57.723Z,8.99
2023-02-19T01:48:24.138Z,8.96
2023-02-19T01:50:50.562Z,8.96
2023-02-19T01:53:16.956Z,8.95
2023-02-19T01:55:43.352Z,9.11
2023-02-19T01:58:09.869Z,9.04
2023-02-19T02:00:36.304Z,9.04
2023-02-19T02:03:02.755Z,9.02
2023-02-19T02:05:29.280Z,8.99
2023-02-19T02:07:55.694Z,9.00
2023-02-19T02:10:22.088Z,9.02
2023-02-19T02:12:48.484Z,8.98
2023-02-19T02:15:14.896Z,9.03
2023-02-19T02:17:41.311Z,9.07
2023-02-19T02:20:07.769Z,9.10
2023-02-19T02:22:34.184Z,9.05
2023-02-19T02:25:00.579Z,9.08
2023-02-19T02:27:26.985Z,9.16
2023-02-19T02:29:53.499Z,9.15
2023-02-19T02:32:20.047Z,9.14
2023-02-19T02:34:46.543Z,9.18
2023-02-19T02:37:12.964Z,9.13
2023-02-19T02:39:39.371Z,9.13
2023-02-19T02:42:05.780Z,9.17
2023-02-19T02:44:32.179Z,9.12
2023-02-19T02:46:58.639Z,9.15
2023-02-19T02:49:25.165Z,9.11
2023-02-19T02:51:51.547Z,9.06
2023-02-19T02:54:17.926Z,9.05
2023-02-19T02:56:44.331Z,9.09
2023-02-19T02:59:10.730Z,9.31
2023-02-19T03:01:37.160Z,9.29
2023-02-19T03:04:03.591Z,9.18
2023-02-19T03:06:30.010Z,9.10
2023-02-19T03:08:56.442Z,9.04
2023-02-19T03:11:22.890Z,9.03
2023-02-19T03:13:49.293Z,9.00
2023-02-19T03:16:15.755Z,8.99
2023-02-19T03:18:42.190Z,8.98
2023-02-19T03:21:08.997Z,9.03
2023-02-19T03:23:35.543Z,9.04
2023-02-19T03:26:01.954Z,8.99
2023-02-19T03:28:28.364Z,9.02
2023-02-19T03:30:54.774Z,8.99
2023-02-19T03:33:21.186Z,9.03
2023-02-19T03:35:47.593Z,9.26
2023-02-19T03:38:14.000Z,9.08
2023-02-19T03:40:40.399Z,9.05
2023-02-19T03:43:06.826Z,9.01
2023-02-19T03:45:33.267Z,8.98
2023-02-19T03:48:02.445Z,9.01
2023-02-19T03:50:28.856Z,9.09
2023-02-19T03:52:55.494Z,9.34
2023-02-19T03:55:22.926Z,9.08
2023-02-19T03:57:49.322Z,8.95
2023-02-19T04:00:16.982Z,8.95
2023-02-19T04:02:43.846Z,8.82
2023-02-19T04:05:10.971Z,8.80
2023-02-19T04:07:39.190Z,8.84
2023-02-19T04:10:05.580Z,8.77
2023-02-19T04:12:32.571Z,8.55
2023-02-19T04:14:59.003Z,8.54
2023-02-19T04:17:25.434Z,8.56
2023-02-19T04:19:51.853Z,8.66
2023-02-19T04:22:18.302Z,8.73
2023-02-19T04:24:44.665Z,8.75
2023-02-19T04:27:11.077Z,8.82
2023-02-19T04:29:39.529Z,8.81
2023-02-19T04:32:08.327Z,8.87
2023-02-19T04:34:34.767Z,8.94
2023-02-19T04:37:01.177Z,8.93
2023-02-19T04:39:27.580Z,9.06
2023-02-19T04:41:53.998Z,9.01
2023-02-19T04:44:20.377Z,9.10
2023-02-19T04:46:46.806Z,9.03
2023-02-19T04:49:13.201Z,9.02
2023-02-19T04:51:39.604Z,9.11
2023-02-19T04:54:06.021Z,9.07
2023-02-19T04:56:32.475Z,9.11
2023-02-19T04:58:58.897Z,9.12
2023-02-19T05:01:25.323Z,9.13
2023-02-19T05:03:51.858Z,9.15
2023-02-19T05:06:18.255Z,9.21
2023-02-19T05:08:44.643Z,9.27
2023-02-19T05:11:11.434Z,9.25
2023-02-19T05:13:38.040Z,9.28
2023-02-19T05:16:04.454Z,9.28
2023-02-19T05:18:30.902Z,9.28
2023-02-19T05:20:57.293Z,9.30
2023-02-19T05:23:23.695Z,9.23
2023-02-19T05:25:50.086Z,9.22
2023-02-19T05:28:16.496Z,9.30
2023-02-19T05:30:42.903Z,9.30
2023-02-19T05:33:09.390Z,9.28
2023-02-19T05:35:35.800Z,9.46
2023-02-19T05:38:02.251Z,9.44
2023-02-19T05:40:28.660Z,9.31
2023-02-19T05:42:55.074Z,9.64
2023-02-19T05:45:21.491Z,9.70
2023-02-19T05:47:47.876Z,9.44
2023-02-19T05:50:14.292Z,9.48
2023-02-19T05:52:40.669Z,9.30
2023-02-19T05:55:07.068Z,9.20
2023-02-19T05:57:33.479Z,9.21
2023-02-19T05:59:59.902Z,9.22
2023-02-19T06:02:26.375Z,9.24
2023-02-19T06:04:52.886Z,9.41
2023-02-19T06:07:19.284Z,9.39
2023-02-19T06:09:45.674Z,9.41
2023-02-19T06:12:12.109Z,9.43
2023-02-19T06:14:38.509Z,9.49
2023-02-19T06:17:05.029Z,9.44
2023-02-19T06:19:31.419Z,9.45
2023-02-19T06:21:57.828Z,9.61
2023-02-19T06:24:24.253Z,9.49
2023-02-19T06:26:50.638Z,9.50
2023-02-19T06:29:17.042Z,9.51
2023-02-19T06:31:43.520Z,9.53
2023-02-19T06:34:09.964Z,9.43
2023-02-19T06:36:36.355Z,9.44
2023-02-19T06:39:02.832Z,9.44
2023-02-19T06:41:29.230Z,9.36
2023-02-19T06:43:55.651Z,9.34
2023-02-19T06:46:22.089Z,9.24
2023-02-19T06:48:48.563Z,9.16
2023-02-19T06:51:14.999Z,9.10
2023-02-19T06:53:41.387Z,9.04
2023-02-19T06:56:07.991Z,9.02
2023-02-19T06:58:34.414Z,8.95
2023-02-19T07:01:00.881Z,8.91
2023-02-19T07:03:27.343Z,8.88
2023-02-19T07:05:53.762Z,8.87
2023-02-19T07:08:20.275Z,8.85
2023-02-19T07:10:46.688Z,8.84
2023-02-19T07:13:13.090Z,8.88
2023-02-19T07:15:39.599Z,8.89
2023-02-19T07:18:06.049Z,8.92
2023-02-19T07:20:32.438Z,8.92
2023-02-19T07:22:58.853Z,8.87
2023-02-19T07:25:25.250Z,8.87
2023-02-19T07:27:51.674Z,8.86
2023-02-19T07:30:18.170Z,8.90
2023-02-19T07:32:44.618Z,8.93
2023-02-19T07:35:11.035Z,9.02
2023-02-19T07:37:37.481Z,9.22
2023-02-19T07:40:03.923Z,9.27
2023-02-19T07:42:30.392Z,9.46
2023-02-19T07:44:58.443Z,9.51
2023-02-19T07:47:26.669Z,9.59
2023-02-19T07:49:53.164Z,9.58
2023-02-19T07:52:19.566Z,9.69
2023-02-19T07:54:45.964Z,9.83
2023-02-19T07:57:12.460Z,10.07
2023-02-19T07:59:38.839Z,10.24
2023-02-19T08:02:05.226Z,10.27
2023-02-19T08:04:31.638Z,10.23
2023-02-19T08:06:58.031Z,10.29
2023-02-19T08:09:24.518Z,10.37
2023-02-19T08:11:50.949Z,10.52
2023-02-19T08:14:17.332Z,10.67
2023-02-19T08:16:43.783Z,10.88
2023-02-19T08:19:10.217Z,11.02
2023-02-19T08:21:36.757Z,11.07
2023-02-19T08:24:03.159Z,11.08
2023-02-19T08:26:29.568Z,11.23
2023-02-19T08:28:56.024Z,11.45
2023-02-19T08:31:22.477Z,11.48
2023-02-19T08:33:49.362Z,11.34
2023-02-19T08:36:15.777Z,11.35
2023-02-19T08:38:42.204Z,11.32
2023-02-19T08:41:08.963Z,11.36
2023-02-19T08:43:35.637Z,11.55
2023-02-19T08:46:02.110Z,11.53
2023-02-19T08:48:28.560Z,11.58
2023-02-19T08:50:54.954Z,11.77
2023-02-19T08:53:21.340Z,11.79
2023-02-19T08:55:47.758Z,11.91
2023-02-19T08:58:14.192Z,11.83
2023-02-19T09:00:40.605Z,11.78
2023-02-19T09:03:07.025Z,11.94
2023-02-19T09:05:33.433Z,11.99
2023-02-19T09:07:59.838Z,12.03
2023-02-19T09:10:26.226Z,12.08
2023-02-19T09:12:52.624Z,12.18
2023-02-19T09:15:18.992Z,12.34
2023-02-19T09:17:45.408Z,12.44
2023-02-19T09:20:11.793Z,12.61
2023-02-19T09:22:38.182Z,12.63
2023-02-19T09:25:04.564Z,12.79
2023-02-19T09:27:30.975Z,12.71
2023-02-19T09:29:57.362Z,12.78
2023-02-19T09:32:23.773Z,12.80
2023-02-19T09:34:50.198Z,12.99
2023-02-19T09:37:16.594Z,12.84
2023-02-19T09:39:42.977Z,12.95
2023-02-19T09:42:09.390Z,12.92
2023-02-19T09:44:35.775Z,12.90
2023-02-19T09:47:02.162Z,12.96
2023-02-19T09:49:28.634Z,12.88
2023-02-19T09:51:55.066Z,12.84
2023-02-19T09:54:21.486Z,12.90
2023-02-19T09:56:47.893Z,12.96
2023-02-19T09:59:14.339Z,13.02
2023-02-19T10:01:40.788Z,13.05
2023-02-19T10:04:07.219Z,13.18
2023-02-19T10:06:33.660Z,13.22
2023-02-19T10:09:00.046Z,13.27
2023-02-19T10:11:26.430Z,13.29
2023-02-19T10:13:52.806Z,13.25
2023-02-19T10:16:19.226Z,13.20
2023-02-19T10:18:45.607Z,13.22
2023-02-19T10:21:12.229Z,13.22
2023-02-19T10:23:38.763Z,13.38
2023-02-19T10:26:05.176Z,13.24
2023-02-19T10:28:31.578Z,13.20
2023-02-19T10:30:58.059Z,13.15
2023-02-19T10:33:24.468Z,13.47
2023-02-19T10:35:50.859Z,13.36
2023-02-19T10:38:17.267Z,13.12
2023-02-19T10:40:43.655Z,13.19
2023-02-19T10:43:10.028Z,12.95
2023-02-19T10:45:36.507Z,12.95
2023-02-19T10:48:02.927Z,13.04
2023-02-19T10:50:29.325Z,13.11
2023-02-19T10:52:55.715Z,12.90
2023-02-19T10:55:22.087Z,13.03
2023-02-19T10:57:48.486Z,12.90
2023-02-19T11:00:14.907Z,12.90
2023-02-19T11:02:41.371Z,12.88
2023-02-19T11:05:07.743Z,12.87
2023-02-19T11:07:34.133Z,13.17
2023-02-19T11:10:00.527Z,12.96
2023-02-19T11:12:26.916Z,13.16
2023-02-19T11:14:53.316Z,13.11
2023-02-19T11:17:19.727Z,12.97
2023-02-19T11:19:46.214Z,13.14
2023-02-19T11:22:12.606Z,13.02
2023-02-19T11:24:39.010Z,13.01
2023-02-19T11:27:05.390Z,13.10
2023-02-19T11:29:31.785Z,12.88
2023-02-19T11:31:58.245Z,12.93
2023-02-19T11:34:24.700Z,13.08
2023-02-19T11:36:51.124Z,12.93
2023-02-19T11:39:17.515Z,12.95
2023-02-19T11:41:43.918Z,12.83
2023-02-19T11:44:10.300Z,12.79
2023-02-19T11:46:36.754Z,12.86
2023-02-19T11:49:03.178Z,12.79
2023-02-19T11:51:29.579Z,12.86
2023-02-19T11:53:55.959Z,12.85
2023-02-19T11:56:22.343Z,12.79
2023-02-19T11:58:48.757Z,12.81
2023-02-19T12:01:15.177Z,12.88
2023-02-19T12:03:41.571Z,12.74
2023-02-19T12:06:08.021Z,12.81
2023-02-19T12:08:34.427Z,12.59
2023-02-19T12:11:00.854Z,12.65
2023-02-19T12:13:27.233Z,12.65
2023-02-19T12:18:24.991Z,12.63
2023-02-19T12:20:51.402Z,12.44
2023-02-19T12:23:17.902Z,12.62
2023-02-19T12:25:44.283Z,12.64
2023-02-19T12:28:10.657Z,12.57
2023-02-19T12:30:37.121Z,12.63
2023-02-19T12:33:03.564Z,12.71
2023-02-19T12:35:29.942Z,12.69
2023-02-19T12:37:56.336Z,12.63
2023-02-19T12:40:22.707Z,12.88
2023-02-19T12:42:51.036Z,12.84
2023-02-19T12:45:17.544Z,12.66
2023-02-19T12:47:43.916Z,12.60
2023-02-19T12:50:10.294Z,12.64
2023-02-19T12:52:36.701Z,12.72
2023-02-19T12:55:03.127Z,12.79
2023-02-19T12:57:29.615Z,12.81
2023-02-19T12:59:56.053Z,12.91
2023-02-19T13:02:22.529Z,12.86
2023-02-19T13:04:48.937Z,12.86
2023-02-19T13:07:15.354Z,13.03
2023-02-19T13:09:41.752Z,13.02
2023-02-19T13:12:08.137Z,13.03
2023-02-19T13:14:34.527Z,13.18
2023-02-19T13:17:01.010Z,13.27
2023-02-19T13:19:27.450Z,13.35
2023-02-19T13:21:53.851Z,13.60
2023-02-19T13:24:20.231Z,13.73
2023-02-19T13:26:46.722Z,13.78
2023-02-19T13:29:13.111Z,13.96
2023-02-19T13:31:39.639Z,14.09
2023-02-19T13:34:06.180Z,14.03
2023-02-19T13:36:32.628Z,13.97
2023-02-19T13:38:59.013Z,13.96
2023-02-19T13:41:25.436Z,13.99
2023-02-19T13:43:51.827Z,14.01
2023-02-19T13:46:18.261Z,14.09
2023-02-19T13:48:44.664Z,14.18
2023-02-19T13:51:11.355Z,14.14
2023-02-19T13:53:37.943Z,14.13
2023-02-19T13:56:04.319Z,14.01
2023-02-19T13:58:31.998Z,13.88
2023-02-19T14:00:58.403Z,13.75
2023-02-19T14:03:24.807Z,13.39
2023-02-19T14:05:51.187Z,13.16
2023-02-19T14:08:17.565Z,12.86
2023-02-19T14:10:43.961Z,12.65
2023-02-19T14:13:10.416Z,12.54
2023-02-19T14:15:36.932Z,12.44
2023-02-19T14:18:03.412Z,12.30
2023-02-19T14:20:29.801Z,12.28
2023-02-19T14:22:56.178Z,12.04
2023-02-19T14:25:22.586Z,12.05
2023-02-19T14:27:48.970Z,12.11
2023-02-19T14:30:15.414Z,12.13
2023-02-19T14:32:43.566Z,12.07
2023-02-19T14:35:11.602Z,12.04
2023-02-19T14:37:37.981Z,11.99
2023-02-19T14:40:04.544Z,12.13
2023-02-19T14:42:30.969Z,12.16
2023-02-19T14:44:57.370Z,12.18
2023-02-19T14:47:23.781Z,12.10
2023-02-19T14:49:50.177Z,12.08
2023-02-19T14:52:16.590Z,12.28
2023-02-19T14:54:43.002Z,12.26
2023-02-19T14:57:09.505Z,12.18
2023-02-19T14:59:35.902Z,12.15
2023-02-19T15:02:02.294Z,12.01
2023-02-19T15:04:28.709Z,12.00
2023-02-19T15:06:55.165Z,11.90
2023-02-19T15:09:21.538Z,11.84
2023-02-19T15:11:47.933Z,11.81
2023-02-19T15:14:14.362Z,11.74
2023-02-19T15:16:40.765Z,11.70
2023-02-19T15:19:07.173Z,11.45
2023-02-19T15:21:33.590Z,11.50
2023-02-19T15:24:00.027Z,11.38
2023-02-19T15:26:26.406Z,11.42
2023-02-19T15:28:52.797Z,11.36
2023-02-19T15:31:19.323Z,11.30
2023-02-19T15:33:45.776Z,11.24
2023-02-19T15:36:12.254Z,11.20
2023-02-19T15:38:38.648Z,11.02
2023-02-19T15:41:05.229Z,10.99
2023-02-19T15:43:31.656Z,10.85
2023-02-19T15:45:58.057Z,10.76
2023-02-19T15:48:24.427Z,10.66
2023-02-19T15:50:50.811Z,10.59
2023-02-19T15:53:17.248Z,10.57
2023-02-19T15:55:43.668Z,10.41
2023-02-19T15:58:10.122Z,10.41
2023-02-19T16:00:36.513Z,10.25
2023-02-19T16:03:02.928Z,10.27
2023-02-19T16:05:29.379Z,10.20
2023-02-19T16:07:55.766Z,10.16
2023-02-19T16:10:22.386Z,10.01
2023-02-19T16:12:48.797Z,10.11
2023-02-19T16:15:15.199Z,10.03
2023-02-19T16:17:41.586Z,10.10
2023-02-19T16:20:08.010Z,9.99
2023-02-19T16:22:34.414Z,10.01
2023-02-19T16:25:00.845Z,9.94
2023-02-19T16:27:27.226Z,9.97
2023-02-19T16:29:53.610Z,9.92
2023-02-19T16:32:20.069Z,9.84
2023-02-19T16:34:46.557Z,9.79
2023-02-19T16:37:12.938Z,9.85
2023-02-19T16:39:39.314Z,9.77
2023-02-19T16:42:05.841Z,9.67
2023-02-19T16:44:32.235Z,9.73
2023-02-19T16:46:58.645Z,9.78
2023-02-19T16:49:25.062Z,9.65
2023-02-19T16:51:51.455Z,9.58
2023-02-19T16:54:17.856Z,9.58
2023-02-19T16:56:44.276Z,9.57
2023-02-19T16:59:10.689Z,9.41
2023-02-19T17:01:37.138Z,9.47
2023-02-19T17:04:03.589Z,9.31
2023-02-19T17:06:30.045Z,9.32
2023-02-19T17:08:56.504Z,9.29
2023-02-19T17:13:49.340Z,9.15
2023-02-19T17:16:15.777Z,9.21
2023-02-19T17:18:42.192Z,9.05
2023-02-19T17:21:08.662Z,9.04
2023-02-19T17:23:35.056Z,9.04
2023-02-19T17:26:01.500Z,9.16
2023-02-19T17:28:27.898Z,9.06
2023-02-19T17:30:54.305Z,8.99
2023-02-19T17:33:20.681Z,8.85
2023-02-19T17:35:47.123Z,8.90
2023-02-19T17:38:13.527Z,8.88
2023-02-19T17:40:39.903Z,8.96
2023-02-19T17:43:06.630Z,9.07
2023-02-19T17:45:33.062Z,8.82
2023-02-19T17:47:59.482Z,8.93
2023-02-19T17:50:25.894Z,8.93
2023-02-19T17:52:52.299Z,8.84
2023-02-19T17:55:18.726Z,8.66
2023-02-19T17:57:45.093Z,8.67
2023-02-19T18:00:11.520Z,8.73
2023-02-19T18:02:37.926Z,8.57
2023-02-19T18:05:04.342Z,8.82
2023-02-19T18:07:30.794Z,8.76
2023-02-19T18:09:57.187Z,8.67
2023-02-19T18:12:23.606Z,8.66
2023-02-19T18:14:49.979Z,8.66
2023-02-19T18:17:16.397Z,8.47
2023-02-19T18:19:42.776Z,8.46
2023-02-19T18:22:09.164Z,8.62
2023-02-19T18:24:35.589Z,8.58
2023-02-19T18:27:02.014Z,8.54
2023-02-19T18:29:28.437Z,8.54
2023-02-19T18:31:54.949Z,8.45
2023-02-19T18:34:21.419Z,8.47
2023-02-19T18:36:47.823Z,8.25
2023-02-19T18:39:14.301Z,8.27
2023-02-19T18:41:40.708Z,8.45
2023-02-19T18:44:07.106Z,8.53
2023-02-19T18:46:33.513Z,8.39
2023-02-19T18:48:59.929Z,8.29
2023-02-19T18:51:26.370Z,8.28
2023-02-19T18:53:52.785Z,8.27
2023-02-19T18:56:19.191Z,8.18
2023-02-19T18:58:45.626Z,8.22
2023-02-19T19:01:12.215Z,8.27
2023-02-19T19:03:38.817Z,8.23
2023-02-19T19:06:05.210Z,8.27
2023-02-19T19:08:31.630Z,7.99
2023-02-19T19:10:58.039Z,8.11
2023-02-19T19:13:24.566Z,8.10
2023-02-19T19:15:51.010Z,8.06
2023-02-19T19:18:17.406Z,8.07
2023-02-19T19:20:43.810Z,8.08
2023-02-19T19:23:10.310Z,8.24
2023-02-19T19:25:36.739Z,8.21
2023-02-19T19:28:03.113Z,8.11
2023-02-19T19:30:29.597Z,8.30
2023-02-19T19:32:55.973Z,8.04
2023-02-19T19:35:22.374Z,7.99
2023-02-19T19:37:48.785Z,8.02
2023-02-19T19:40:15.163Z,8.04
2023-02-19T19:42:43.572Z,7.98
2023-02-19T19:45:10.814Z,8.12
2023-02-19T19:47:37.287Z,8.10
2023-02-19T19:50:03.805Z,7.96
2023-02-19T19:52:30.208Z,7.94
2023-02-19T19:54:56.603Z,7.84
2023-02-19T19:57:23.023Z,7.79
2023-02-19T19:59:49.424Z,7.91
2023-02-19T20:02:15.820Z,8.00
2023-02-19T20:04:42.210Z,7.71
2023-02-19T20:07:08.609Z,7.99
2023-02-19T20:09:35.024Z,7.92
2023-02-19T20:12:01.416Z,7.79
2023-02-19T20:14:27.898Z,7.83
2023-02-19T20:16:54.305Z,7.85
2023-02-19T20:19:20.708Z,7.83
2023-02-19T20:21:47.098Z,7.73
2023-02-19T20:24:13.532Z,7.75
2023-02-19T20:26:39.958Z,7.56
2023-02-19T20:29:06.394Z,7.46
2023-02-19T20:31:32.902Z,7.54
2023-02-19T20:33:59.382Z,7.67
2023-02-19T20:36:25.795Z,7.63
2023-02-19T20:38:52.207Z,7.58
2023-02-19T20:41:18.613Z,7.61
2023-02-19T20:43:45.011Z,7.45
2023-02-19T20:46:11.821Z,7.45
2023-02-19T20:48:38.435Z,7.50
2023-02-19T20:51:04.924Z,7.84
2023-02-19T20:53:31.307Z,7.79
2023-02-19T20:55:57.729Z,7.75
2023-02-19T20:58:24.135Z,7.83
2023-02-19T21:00:50.629Z,7.75
2023-02-19T21:03:17.025Z,7.68
2023-02-19T21:05:43.427Z,7.41
2023-02-19T21:08:09.802Z,7.30
2023-02-19T21:10:36.217Z,7.27
2023-02-19T21:13:02.619Z,7.41
2023-02-19T21:15:29.020Z,7.37
2023-02-19T21:17:55.417Z,7.33
2023-02-19T21:20:22.151Z,7.31
2023-02-19T21:22:48.553Z,7.32
2023-02-19T21:25:14.962Z,7.27
2023-02-19T21:27:41.378Z,7.35
2023-02-19T21:30:07.800Z,7.28
2023-02-19T21:32:34.238Z,7.23
2023-02-19T21:35:00.653Z,7.24
2023-02-19T21:37:27.051Z,7.22
2023-02-19T21:39:53.455Z,7.19
2023-02-19T21:42:19.851Z,7.22
2023-02-19T21:44:46.251Z,7.24
2023-02-19T21:47:12.668Z,7.20
2023-02-19T21:49:39.118Z,7.21
2023-02-19T21:52:05.516Z,7.20
2023-02-19T21:54:31.926Z,7.23
2023-02-19T21:56:58.310Z,7.26
2023-02-19T21:59:24.729Z,7.24
2023-02-19T22:01:51.136Z,7.33
2023-02-19T22:04:17.532Z,7.27
2023-02-19T22:06:43.938Z,7.25
2023-02-19T22:09:10.374Z,7.27
2023-02-19T22:11:36.804Z,7.25
2023-02-19T22:14:03.205Z,7.24
2023-02-19T22:16:29.656Z,7.21
2023-02-19T22:18:56.100Z,7.18
2023-02-19T22:21:22.536Z,7.19
2023-02-19T22:23:48.958Z,7.16
2023-02-19T22:26:15.396Z,7.08
2023-02-19T22:28:41.847Z,7.15
2023-02-19T22:31:08.269Z,7.02
2023-02-19T22:33:34.639Z,6.90
2023-02-19T22:36:01.053Z,6.92
2023-02-19T22:38:27.449Z,6.83
2023-02-19T22:40:53.849Z,6.90
2023-02-19T22:43:20.244Z,6.94
2023-02-19T22:45:46.677Z,6.88
2023-02-19T22:48:16.887Z,6.98
2023-02-19T22:50:45.643Z,7.12
2023-02-19T22:53:12.061Z,7.08
2023-02-19T22:55:38.495Z,7.07
2023-02-19T22:58:04.955Z,7.07
2023-02-19T23:00:31.359Z,7.18
2023-02-19T23:02:57.878Z,7.12
2023-02-19T23:05:24.272Z,7.09
2023-02-19T23:07:50.663Z,7.07
2023-02-19T23:10:17.063Z,7.11
2023-02-19T23:12:43.490Z,6.88
2023-02-19T23:15:09.874Z,6.94
2023-02-19T23:17:36.301Z,7.09
2023-02-19T23:20:02.737Z,6.92
2023-02-19T23:22:29.146Z,6.75
2023-02-19T23:24:55.718Z,6.74
2023-02-19T23:27:22.138Z,6.71
2023-02-19T23:29:48.567Z,6.76
2023-02-19T23:32:14.960Z,6.89
2023-02-19T23:34:41.394Z,6.80
2023-02-19T23:37:07.815Z,6.70
2023-02-19T23:39:34.219Z,6.67
2023-02-19T23:42:00.609Z,6.66
2023-02-19T23:44:27.025Z,6.63
2023-02-19T23:46:53.408Z,6.60
2023-02-19T23:49:19.815Z,6.59
2023-02-19T23:51:46.216Z,6.63
2023-02-19T23:54:12.636Z,6.65
2023-02-19T23:56:39.039Z,6.59
2023-02-19T23:59:05.440Z,6.55
